Time;durP1;ratioP1;P1;durP2;ratioP2;P2;SDS_P1;SDS_P2;PMS_P1;PMS_P2;Temp;Humidity;BMP_temperature;BMP_pressure;BME280_temperature;BME280_humidity;BME280_pressure;Samples;Min_cycle;Max_cycle;Signal;HPM_P1;HPM_P2
2022/03/06 00:01:38;;;;;;;42.72;28.52;;;;;;;-2.19;72.40;101963.66;7396051;19;20019;-67
2022/03/06 00:04:09;;;;;;;45.50;31.05;;;;;;;-2.16;72.51;101958.66;7396066;19;20022;-67
2022/03/06 00:06:37;;;;;;;45.30;32.53;;;;;;;-2.15;72.28;101956.19;7394352;19;20010;-66
2022/03/06 00:09:06;;;;;;;38.80;25.27;;;;;;;-2.13;72.43;101951.97;7393798;19;20431;-66
2022/03/06 00:11:34;;;;;;;25.60;17.90;;;;;;;-2.11;72.31;101952.09;7394085;19;20019;-68
2022/03/06 00:14:02;;;;;;;27.88;18.80;;;;;;;-2.10;72.34;101948.69;7395823;19;20035;-67
2022/03/06 00:16:30;;;;;;;21.08;17.33;;;;;;;-2.09;72.32;101952.16;7395784;19;20035;-67
2022/03/06 00:18:58;;;;;;;22.95;16.20;;;;;;;-2.09;72.44;101953.03;7393952;19;20047;-67
2022/03/06 00:21:29;;;;;;;23.05;16.95;;;;;;;-2.07;72.31;101954.00;7394045;19;20026;-67
2022/03/06 00:23:57;;;;;;;23.77;17.85;;;;;;;-2.05;72.28;101952.34;7395963;19;20014;-67
2022/03/06 00:26:25;;;;;;;23.92;17.33;;;;;;;-2.04;72.27;101951.56;7395489;19;20027;-67
2022/03/06 00:28:54;;;;;;;30.55;18.63;;;;;;;-2.01;72.42;101950.81;7395068;19;20412;-67
2022/03/06 00:31:22;;;;;;;25.35;18.33;;;;;;;-1.99;72.31;101944.06;7393599;19;20019;-67
2022/03/06 00:33:51;;;;;;;33.25;22.95;;;;;;;-1.97;72.46;101955.34;7393489;19;20037;-67
2022/03/06 00:36:20;;;;;;;28.25;20.40;;;;;;;-1.98;72.35;101948.41;7406335;19;20045;-67
2022/03/06 00:38:51;;;;;;;24.80;19.60;;;;;;;-1.99;72.61;101946.66;7409493;19;20039;-67
2022/03/06 00:41:25;;;;;;;20.60;14.57;;;;;;;-2.00;72.91;101958.63;7409895;19;20019;-67
2022/03/06 00:43:53;;;;;;;17.85;13.35;;;;;;;-2.01;72.83;101955.97;7407513;19;20015;-67
2022/03/06 00:46:21;;;;;;;17.58;12.55;;;;;;;-2.02;72.88;101952.53;7407461;19;20032;-66
2022/03/06 00:48:50;;;;;;;14.25;11.70;;;;;;;-2.02;72.98;101957.66;7408901;19;20433;-67
2022/03/06 00:51:18;;;;;;;18.13;11.88;;;;;;;-2.03;73.22;101957.59;7407320;19;20022;-67
2022/03/06 00:53:47;;;;;;;16.50;11.43;;;;;;;-2.04;73.06;101953.25;7406777;19;20467;-67
2022/03/06 00:56:18;;;;;;;16.42;10.25;;;;;;;-2.03;73.03;101963.63;7408907;19;20031;-67
2022/03/06 00:58:46;;;;;;;15.52;11.82;;;;;;;-2.01;73.30;101955.97;7408620;19;20420;-67
2022/03/06 01:01:14;;;;;;;14.63;11.05;;;;;;;-2.00;73.04;101955.16;7408735;19;20035;-66
2022/03/06 01:03:42;;;;;;;16.23;12.23;;;;;;;-1.99;73.29;101946.66;7407008;19;20035;-67
2022/03/06 01:06:10;;;;;;;14.52;11.13;;;;;;;-1.96;73.13;101962.22;7408518;19;20040;-67
2022/03/06 01:08:38;;;;;;;13.35;11.52;;;;;;;-1.92;73.10;101961.59;7406567;19;20022;-67
2022/03/06 01:11:06;;;;;;;13.80;11.75;;;;;;;-1.92;73.32;101965.81;7406104;19;20385;-64
2022/03/06 01:13:37;;;;;;;15.43;12.00;;;;;;;-1.91;73.38;101959.88;7406324;19;20434;-65
2022/03/06 01:16:06;;;;;;;13.73;11.80;;;;;;;-1.89;73.22;101966.00;7406179;19;20634;-65
2022/03/06 01:18:34;;;;;;;15.55;11.57;;;;;;;-1.87;73.17;101964.34;7406000;19;20492;-65
2022/03/06 01:21:02;;;;;;;17.02;12.30;;;;;;;-1.85;73.21;101966.19;7408246;19;20031;-65
2022/03/06 01:23:30;;;;;;;15.13;11.45;;;;;;;-1.81;73.01;101959.50;7406512;19;20035;-65
2022/03/06 01:25:59;;;;;;;15.80;12.02;;;;;;;-1.77;72.92;101971.72;7408259;19;20031;-65
2022/03/06 01:28:27;;;;;;;16.65;12.23;;;;;;;-1.73;72.82;101965.03;7407690;19;20391;-64
2022/03/06 01:30:58;;;;;;;16.52;12.85;;;;;;;-1.69;72.70;101967.81;7405840;19;20022;-65
2022/03/06 01:33:26;;;;;;;15.00;11.85;;;;;;;-1.66;72.77;101957.66;7406362;19;20425;-66
2022/03/06 01:35:54;;;;;;;22.05;15.98;;;;;;;-1.61;72.60;101960.47;7405803;19;20035;-65
2022/03/06 01:38:22;;;;;;;21.40;18.08;;;;;;;-1.56;72.74;101959.00;7407957;19;20018;-65
2022/03/06 01:40:51;;;;;;;18.67;15.65;;;;;;;-1.53;72.50;101948.88;7407874;19;20011;-66
2022/03/06 01:43:19;;;;;;;20.85;14.63;;;;;;;-1.49;72.25;101955.03;7405442;19;20039;-66
2022/03/06 01:45:47;;;;;;;16.58;12.55;;;;;;;-1.48;72.40;101959.34;7405042;19;20383;-66
2022/03/06 01:48:18;;;;;;;16.17;12.13;;;;;;;-1.48;72.11;101952.53;7398861;19;20031;-66
2022/03/06 01:50:46;;;;;;;16.13;12.93;;;;;;;-1.47;71.96;101945.69;7399629;19;20022;-66
2022/03/06 01:53:14;;;;;;;18.38;14.18;;;;;;;-1.43;71.96;101955.31;7398725;19;20023;-65
2022/03/06 01:55:43;;;;;;;16.98;12.77;;;;;;;-1.41;72.09;101952.81;7397852;19;20019;-65
2022/03/06 01:58:14;;;;;;;16.88;12.77;;;;;;;-1.42;72.06;101935.59;7397949;19;20021;-66
2022/03/06 02:00:44;;;;;;;18.45;12.85;;;;;;;-1.36;71.61;101943.63;7400684;19;20018;-66
2022/03/06 02:03:13;;;;;;;17.27;12.13;;;;;;;-1.34;71.68;101936.81;7397669;19;20367;-66
2022/03/06 02:05:44;;;;;;;15.75;12.68;;;;;;;-1.34;71.74;101936.81;7400101;19;20074;-65
2022/03/06 02:08:13;;;;;;;16.40;13.27;;;;;;;-1.32;71.46;101937.78;7397863;19;20014;-65
2022/03/06 02:10:41;;;;;;;15.07;13.07;;;;;;;-1.31;71.39;101932.72;7397431;19;20036;-65
2022/03/06 02:13:09;;;;;;;14.73;12.75;;;;;;;-1.27;71.39;101932.88;7398448;19;20499;-66
2022/03/06 02:15:37;;;;;;;20.08;13.95;;;;;;;-1.25;71.24;101938.94;7399802;19;20022;-66
2022/03/06 02:18:06;;;;;;;18.55;13.73;;;;;;;-1.25;70.93;101933.78;7397011;19;20433;-66
2022/03/06 02:20:36;;;;;;;18.17;13.13;;;;;;;-1.25;70.82;101944.09;7397328;19;20015;-66
2022/03/06 02:23:07;;;;;;;17.52;13.10;;;;;;;-1.25;70.71;101937.28;7397224;19;20022;-66
2022/03/06 02:25:37;;;;;;;16.25;13.07;;;;;;;-1.24;70.84;101943.28;7399149;19;20478;-66
2022/03/06 02:28:08;;;;;;;15.00;12.38;;;;;;;-1.25;70.57;101933.78;7397124;19;20022;-66
2022/03/06 02:30:39;;;;;;;16.42;13.10;;;;;;;-1.24;70.85;101930.41;7398084;19;20483;-66
2022/03/06 02:33:09;;;;;;;15.70;12.90;;;;;;;-1.24;70.47;101928.75;7397791;19;20014;-66
2022/03/06 02:35:38;;;;;;;17.13;13.05;;;;;;;-1.22;70.60;101927.09;7396886;19;20018;-66
2022/03/06 02:38:09;;;;;;;18.08;12.93;;;;;;;-1.20;70.68;101920.34;7396929;19;20362;-66
2022/03/06 02:40:42;;;;;;;18.20;12.98;;;;;;;-1.19;70.38;101922.09;7399328;19;20022;-65
2022/03/06 02:43:11;;;;;;;15.93;13.52;;;;;;;-1.16;70.47;101922.22;7397381;19;20015;-72
2022/03/06 02:45:40;;;;;;;16.90;13.18;;;;;;;-1.14;70.35;101922.28;7398862;19;20023;-66
2022/03/06 02:48:10;;;;;;;19.98;13.15;;;;;;;-1.15;70.04;101915.38;7398674;19;20014;-66
2022/03/06 02:50:40;;;;;;;19.02;13.88;;;;;;;-1.17;70.29;101917.88;7396008;19;20474;-66
2022/03/06 02:53:12;;;;;;;17.45;13.75;;;;;;;-1.17;70.19;101922.16;7396673;19;20369;-65
2022/03/06 02:55:42;;;;;;;18.98;14.10;;;;;;;-1.17;70.13;101905.00;7398799;19;20035;-66
2022/03/06 02:58:10;;;;;;;16.67;12.45;;;;;;;-1.17;70.13;101899.84;7397922;19;20018;-66
2022/03/06 03:00:45;;;;;;;17.55;13.15;;;;;;;-1.15;70.29;101908.53;7396217;19;20019;-66
2022/03/06 03:03:13;;;;;;;15.70;12.38;;;;;;;-1.14;70.29;101901.69;7396133;19;20018;-66
2022/03/06 03:05:41;;;;;;;16.83;13.25;;;;;;;-1.12;70.27;101899.22;7398138;19;20022;-66
2022/03/06 03:08:12;;;;;;;19.38;13.63;;;;;;;-1.11;70.04;101888.06;7395365;19;20011;-66
2022/03/06 03:10:40;;;;;;;19.10;13.02;;;;;;;-1.10;70.23;101892.41;7397617;19;20039;-65
2022/03/06 03:13:08;;;;;;;18.45;13.40;;;;;;;-1.09;70.23;101899.31;7395843;19;20022;-65
2022/03/06 03:15:36;;;;;;;20.23;14.07;;;;;;;-1.09;70.20;101889.03;7397786;19;20039;-65
2022/03/06 03:18:05;;;;;;;19.35;15.30;;;;;;;-1.08;70.14;101886.50;7397841;19;20090;-65
2022/03/06 03:20:33;;;;;;;19.63;15.82;;;;;;;-1.07;70.00;101888.28;7395827;19;20035;-65
2022/03/06 03:23:01;;;;;;;19.13;14.90;;;;;;;-1.07;70.04;101888.28;7396291;19;20039;-65
2022/03/06 03:25:32;;;;;;;22.95;17.02;;;;;;;-1.06;69.97;101892.63;7397437;19;20041;-65
2022/03/06 03:28:00;;;;;;;21.48;15.60;;;;;;;-1.06;69.92;101891.72;7396939;19;20421;-65
2022/03/06 03:30:28;;;;;;;22.13;15.85;;;;;;;-1.05;70.21;101898.63;7396792;19;20022;-65
2022/03/06 03:32:56;;;;;;;21.42;15.07;;;;;;;-1.07;70.07;101908.00;7395969;19;20027;-65
2022/03/06 03:35:24;;;;;;;17.83;13.77;;;;;;;-1.09;69.72;101909.63;7396846;19;20045;-65
2022/03/06 03:37:52;;;;;;;19.95;14.20;;;;;;;-1.12;70.15;101910.38;7397247;19;20531;-64
2022/03/06 03:40:21;;;;;;;19.75;13.63;;;;;;;-1.15;70.06;101924.00;7394857;19;20014;-65
2022/03/06 03:42:51;;;;;;;18.92;13.68;;;;;;;-1.16;70.08;101913.63;7396026;19;20014;-65
2022/03/06 03:45:19;;;;;;;17.80;14.23;;;;;;;-1.17;69.92;101920.47;7395508;19;20070;-65
2022/03/06 03:47:48;;;;;;;19.10;13.20;;;;;;;-1.15;69.86;101926.56;7395076;19;20032;-65
2022/03/06 03:50:16;;;;;;;17.23;13.25;;;;;;;-1.18;69.57;101920.41;7396425;19;20039;-65
2022/03/06 03:52:44;;;;;;;18.15;13.30;;;;;;;-1.16;69.70;101929.94;7395672;19;20035;-65
2022/03/06 03:55:12;;;;;;;19.45;13.38;;;;;;;-1.15;69.93;101920.53;7394786;19;20018;-65
2022/03/06 03:57:40;;;;;;;17.40;13.43;;;;;;;-1.17;69.71;101923.03;7394746;19;20022;-65
2022/03/06 04:00:12;;;;;;;23.15;13.75;;;;;;;-1.13;69.64;101928.34;7396335;19;20031;-65
2022/03/06 04:02:40;;;;;;;18.98;13.90;;;;;;;-1.12;69.78;101924.97;7395173;19;20022;-65
2022/03/06 04:05:10;;;;;;;18.58;13.40;;;;;;;-1.10;69.72;101928.47;7395251;19;20019;-65
2022/03/06 04:07:38;;;;;;;15.27;12.98;;;;;;;-1.09;69.57;101931.09;7393922;19;20027;-65
2022/03/06 04:10:07;;;;;;;18.98;13.07;;;;;;;-1.09;69.49;101925.94;7392636;19;20028;-65
2022/03/06 04:12:35;;;;;;;19.27;14.00;;;;;;;-1.05;69.57;101929.56;7393821;19;20425;-65
2022/03/06 04:15:03;;;;;;;36.10;22.92;;;;;;;-1.06;69.52;101931.25;7395825;19;20026;-65
2022/03/06 04:17:34;;;;;;;18.58;13.82;;;;;;;-1.05;69.47;101921.81;7395845;19;20412;-65
2022/03/06 04:20:02;;;;;;;15.85;12.93;;;;;;;-1.03;69.75;101933.09;7394519;19;20014;-65
2022/03/06 04:22:30;;;;;;;16.90;12.63;;;;;;;-1.01;69.66;101932.34;7393526;19;20385;-65
2022/03/06 04:24:58;;;;;;;18.83;13.32;;;;;;;-1.00;69.50;101928.06;7393918;19;20018;-65
2022/03/06 04:27:26;;;;;;;17.27;13.65;;;;;;;-1.00;69.41;101934.13;7395537;19;20039;-65
2022/03/06 04:29:54;;;;;;;18.30;13.73;;;;;;;-0.99;69.47;101927.25;7394925;19;20500;-65
2022/03/06 04:32:23;;;;;;;16.48;13.77;;;;;;;-1.00;69.41;101930.63;7393833;19;20070;-65
2022/03/06 04:34:54;;;;;;;18.40;13.07;;;;;;;-1.00;69.32;101931.53;7393651;19;20018;-64
2022/03/06 04:37:22;;;;;;;14.77;12.52;;;;;;;-1.03;69.57;101925.38;7395717;19;20026;-69
2022/03/06 04:39:50;;;;;;;16.35;13.15;;;;;;;-1.00;69.59;101926.38;7395148;19;20088;-63
2022/03/06 04:42:18;;;;;;;21.50;14.63;;;;;;;-1.01;69.38;101926.28;7394394;19;20014;-65
2022/03/06 04:44:47;;;;;;;21.95;13.48;;;;;;;-0.99;69.71;101928.16;7395286;19;20373;-65
2022/03/06 04:47:15;;;;;;;17.25;12.88;;;;;;;-0.98;69.64;101937.63;7394585;19;20387;-65
2022/03/06 04:49:43;;;;;;;17.17;13.45;;;;;;;-1.00;69.47;101931.53;7395974;19;20039;-65
2022/03/06 04:52:14;;;;;;;19.00;14.30;;;;;;;-1.00;69.51;101933.22;7392935;19;20023;-65
2022/03/06 04:54:42;;;;;;;17.65;13.25;;;;;;;-1.00;69.56;101946.09;7395273;19;20022;-65
2022/03/06 04:57:10;;;;;;;17.75;13.68;;;;;;;-1.00;69.80;101944.41;7394603;19;20027;-65
2022/03/06 04:59:38;;;;;;;19.02;13.70;;;;;;;-1.00;69.77;101943.53;7394723;19;20027;-65
2022/03/06 05:02:06;;;;;;;18.75;13.48;;;;;;;-1.00;69.86;101943.53;7392735;19;20027;-65
2022/03/06 05:04:35;;;;;;;17.27;12.85;;;;;;;-0.99;69.64;101932.41;7394568;19;20022;-65
2022/03/06 05:07:03;;;;;;;17.55;14.25;;;;;;;-1.00;69.85;101928.06;7392150;19;20024;-65
2022/03/06 05:09:34;;;;;;;69.68;38.72;;;;;;;-0.95;69.85;101934.31;7394983;19;20022;-65
2022/03/06 05:12:02;;;;;;;19.75;14.05;;;;;;;-0.95;70.04;101936.88;7392624;19;20023;-65
2022/03/06 05:14:30;;;;;;;19.27;14.43;;;;;;;-0.95;69.94;101938.59;7394380;19;20018;-65
2022/03/06 05:16:59;;;;;;;17.40;13.63;;;;;;;-0.95;69.96;101930.84;7394296;19;20026;-65
2022/03/06 05:19:27;;;;;;;18.52;13.60;;;;;;;-0.94;69.84;101932.63;7392200;19;20022;-65
2022/03/06 05:21:55;;;;;;;18.63;13.88;;;;;;;-0.93;70.13;101929.25;7392950;19;20031;-64
2022/03/06 05:24:23;;;;;;;18.85;13.55;;;;;;;-0.92;70.00;101923.25;7401664;19;20031;-65
2022/03/06 05:26:54;;;;;;;17.38;13.18;;;;;;;-0.91;70.03;101933.66;7401428;19;20026;-65
2022/03/06 05:29:22;;;;;;;18.33;13.77;;;;;;;-0.92;69.97;101924.16;7401711;19;20039;-65
2022/03/06 05:31:50;;;;;;;19.08;14.77;;;;;;;-0.91;69.81;101938.78;7399404;19;20474;-65
2022/03/06 05:34:18;;;;;;;17.30;13.10;;;;;;;-0.91;69.83;101931.06;7398464;19;20035;-65
2022/03/06 05:36:46;;;;;;;19.15;13.73;;;;;;;-0.93;69.90;101935.25;7401077;19;20019;-65
2022/03/06 05:39:15;;;;;;;17.13;13.65;;;;;;;-0.94;69.65;101938.66;7400598;19;20479;-65
2022/03/06 05:41:49;;;;;;;17.80;13.40;;;;;;;-0.95;69.97;101946.31;7400584;19;20022;-65
2022/03/06 05:44:21;;;;;;;19.35;14.15;;;;;;;-0.96;69.76;101935.13;7398738;19;20108;-65
2022/03/06 05:46:49;;;;;;;15.02;12.50;;;;;;;-0.99;69.91;101941.03;7399335;19;20041;-65
2022/03/06 05:49:18;;;;;;;17.27;12.85;;;;;;;-0.99;69.82;101935.88;7397834;19;20475;-65
2022/03/06 05:51:47;;;;;;;16.15;13.05;;;;;;;-1.00;69.93;101947.00;7399484;19;20019;-65
2022/03/06 05:54:15;;;;;;;18.58;12.75;;;;;;;-0.99;69.87;101940.13;7400557;19;20039;-65
2022/03/06 05:56:43;;;;;;;16.77;12.95;;;;;;;-1.01;69.95;101929.78;7400498;19;20018;-65
2022/03/06 05:59:12;;;;;;;14.70;11.80;;;;;;;-0.98;69.84;101947.06;7397897;19;20022;-65
2022/03/06 06:01:42;;;;;;;19.83;12.82;;;;;;;-0.99;69.82;101943.63;7400051;19;20035;-65
2022/03/06 06:04:32;;;;;;;17.80;12.05;;;;;;;-0.98;69.59;101937.63;7400167;19;20011;-65
2022/03/06 06:07:13;;;;;;;16.85;12.23;;;;;;;-0.98;69.67;101937.63;7397774;19;20027;-65
2022/03/06 06:09:41;;;;;;;14.25;11.75;;;;;;;-0.97;69.62;101938.53;7400424;19;20018;-65
2022/03/06 06:12:11;;;;;;;17.95;12.00;;;;;;;-0.97;69.54;101938.53;7397242;19;20079;-65
2022/03/06 06:14:39;;;;;;;17.38;12.38;;;;;;;-0.97;69.47;101930.78;7397441;19;20022;-65
2022/03/06 06:17:09;;;;;;;16.75;13.40;;;;;;;-0.95;69.50;101936.88;7397252;19;20022;-65
2022/03/06 06:19:37;;;;;;;16.02;11.50;;;;;;;-0.94;69.14;101937.78;7398028;19;20479;-65
2022/03/06 06:22:06;;;;;;;14.10;11.13;;;;;;;-0.95;68.84;101938.59;7398014;19;20417;-64
2022/03/06 06:24:35;;;;;;;16.05;11.63;;;;;;;-0.94;69.02;101941.22;7398425;19;20438;-65
2022/03/06 06:27:03;;;;;;;16.58;12.07;;;;;;;-0.93;68.85;101935.25;7396074;19;20451;-65
2022/03/06 06:29:31;;;;;;;14.20;10.18;;;;;;;-0.92;68.53;101943.84;7397029;19;20014;-65
2022/03/06 06:31:59;;;;;;;15.90;11.35;;;;;;;-0.92;68.81;101939.59;7398077;19;20031;-65
2022/03/06 06:34:30;;;;;;;14.88;11.05;;;;;;;-0.92;68.53;101955.06;7397972;19;20018;-65
2022/03/06 06:36:58;;;;;;;12.70;10.38;;;;;;;-0.92;68.42;101947.34;7399795;19;20035;-65
2022/03/06 06:39:26;;;;;;;17.23;11.27;;;;;;;-0.93;68.50;101958.44;7398981;19;20039;-65
2022/03/06 06:41:54;;;;;;;14.52;10.13;;;;;;;-0.93;68.37;101950.72;7396498;19;20026;-65
2022/03/06 06:44:22;;;;;;;12.73;10.13;;;;;;;-0.92;68.22;101949.91;7398743;19;20031;-65
2022/03/06 06:46:50;;;;;;;14.65;10.13;;;;;;;-0.89;68.46;101952.59;7396244;19;20429;-65
2022/03/06 06:49:19;;;;;;;15.55;10.13;;;;;;;-0.88;67.99;101962.09;7396521;19;20039;-65
2022/03/06 06:51:49;;;;;;;17.67;10.57;;;;;;;-0.85;67.97;101956.22;7397772;19;20022;-65
2022/03/06 06:54:17;;;;;;;14.52;10.68;;;;;;;-0.82;68.05;101959.81;7396737;19;20026;-64
2022/03/06 06:56:46;;;;;;;14.07;9.85;;;;;;;-0.80;67.89;101953.84;7395736;19;20022;-65
2022/03/06 06:59:15;;;;;;;15.68;10.18;;;;;;;-0.76;68.13;101955.75;7397926;19;20363;-65
2022/03/06 07:01:43;;;;;;;14.50;10.13;;;;;;;-0.73;68.00;101955.88;7398005;19;20022;-65
2022/03/06 07:04:12;;;;;;;12.13;9.30;;;;;;;-0.71;67.96;101954.25;7398127;19;20039;-65
2022/03/06 07:06:40;;;;;;;14.85;10.82;;;;;;;-0.67;67.66;101954.47;7396126;19;20022;-65
2022/03/06 07:09:10;;;;;;;13.30;10.13;;;;;;;-0.66;67.85;101948.50;7396187;19;20027;-65
2022/03/06 07:11:38;;;;;;;15.85;9.93;;;;;;;-0.60;67.80;101953.03;7398160;19;20035;-64
2022/03/06 07:14:07;;;;;;;13.85;9.95;;;;;;;-0.57;67.72;101950.59;7395817;19;20031;-65
2022/03/06 07:16:35;;;;;;;17.95;10.50;;;;;;;-0.54;67.54;101955.88;7397637;19;20039;-65
2022/03/06 07:19:03;;;;;;;17.17;9.40;;;;;;;-0.48;67.54;101960.41;7397584;19;20022;-65
2022/03/06 07:21:31;;;;;;;13.82;9.63;;;;;;;-0.43;67.41;101958.00;7397642;19;20026;-65
2022/03/06 07:23:59;;;;;;;12.45;9.15;;;;;;;-0.41;67.36;101958.97;7397715;19;20018;-66
2022/03/06 07:26:30;;;;;;;16.75;10.15;;;;;;;-0.34;67.09;101961.88;7397624;19;20022;-66
2022/03/06 07:28:58;;;;;;;13.13;8.57;;;;;;;-0.29;67.10;101962.09;7397810;19;20014;-66
2022/03/06 07:31:27;;;;;;;12.98;8.55;;;;;;;-0.26;66.23;101967.34;7395437;19;20023;-65
2022/03/06 07:33:55;;;;;;;12.38;8.57;;;;;;;-0.24;66.65;101968.31;7395173;19;20023;-65
2022/03/06 07:36:23;;;;;;;15.70;9.13;;;;;;;-0.19;66.42;101965.91;7396888;19;20018;-65
2022/03/06 07:38:51;;;;;;;12.63;8.40;;;;;;;-0.16;66.27;101960.91;7396967;19;20015;-65
2022/03/06 07:41:19;;;;;;;10.73;7.97;;;;;;;-0.11;66.08;101953.34;7396546;19;20475;-66
2022/03/06 07:43:50;;;;;;;10.07;7.70;;;;;;;-0.06;66.00;101954.44;7395157;19;20094;-65
2022/03/06 07:46:18;;;;;;;10.95;7.57;;;;;;;-0.04;66.09;101953.66;7393373;19;20018;-66
2022/03/06 07:48:46;;;;;;;21.50;13.40;;;;;;;0.02;65.60;101965.06;7394928;19;20018;-65
2022/03/06 07:51:14;;;;;;;11.95;8.20;;;;;;;0.05;65.82;101957.44;7396185;19;20457;-66
2022/03/06 07:53:42;;;;;;;9.57;7.38;;;;;;;0.07;65.24;101961.84;7394598;19;20070;-66
2022/03/06 07:56:10;;;;;;;9.50;7.03;;;;;;;0.09;64.62;101967.06;7394610;19;20022;-65
2022/03/06 07:58:39;;;;;;;9.07;7.13;;;;;;;0.12;64.38;101962.03;7394661;19;20039;-65
2022/03/06 08:01:10;;;;;;;12.27;8.02;;;;;;;0.14;64.16;101969.03;7396324;19;20031;-65
2022/03/06 08:03:38;;;;;;;11.45;7.55;;;;;;;0.18;63.31;101975.19;7394864;19;20035;-65
2022/03/06 08:06:06;;;;;;;10.38;7.43;;;;;;;0.19;63.32;101969.22;7394236;19;20386;-65
2022/03/06 08:08:34;;;;;;;10.85;7.05;;;;;;;0.22;63.09;101973.63;7393902;19;20014;-65
2022/03/06 08:11:02;;;;;;;9.85;6.95;;;;;;;0.24;62.86;101978.03;7395885;19;20022;-65
2022/03/06 08:13:30;;;;;;;11.43;8.27;;;;;;;0.26;63.04;101978.09;7393970;19;20035;-66
2022/03/06 08:15:58;;;;;;;11.07;7.13;;;;;;;0.29;62.26;101981.66;7395246;19;20501;-65
2022/03/06 08:18:29;;;;;;;11.63;7.45;;;;;;;0.32;62.04;101975.75;7395223;19;20423;-65
2022/03/06 08:20:57;;;;;;;11.48;7.25;;;;;;;0.35;62.04;101970.69;7396127;19;20026;-65
2022/03/06 08:23:25;;;;;;;9.80;6.60;;;;;;;0.39;61.97;101975.19;7394254;19;20026;-64
2022/03/06 08:25:53;;;;;;;10.43;6.50;;;;;;;0.40;60.86;101979.50;7393821;19;20031;-64
2022/03/06 08:28:21;;;;;;;8.32;6.15;;;;;;;0.38;60.29;101981.16;7395109;19;20535;-65
2022/03/06 08:30:49;;;;;;;8.13;5.70;;;;;;;0.37;61.07;101981.97;7395310;19;20019;-65
2022/03/06 08:33:18;;;;;;;8.50;6.05;;;;;;;0.39;60.15;101987.19;7393528;19;20374;-65
2022/03/06 08:35:48;;;;;;;9.82;6.53;;;;;;;0.39;60.78;101976.88;7395479;19;20026;-65
2022/03/06 08:38:16;;;;;;;10.65;6.80;;;;;;;0.42;60.93;101983.03;7393967;19;20015;-65
2022/03/06 08:40:44;;;;;;;9.32;7.05;;;;;;;0.45;60.97;101982.28;7394528;19;20471;-65
2022/03/06 08:43:13;;;;;;;14.45;8.05;;;;;;;0.45;60.98;101987.44;7393363;19;20026;-65
2022/03/06 08:45:41;;;;;;;15.05;7.97;;;;;;;0.55;61.14;101988.69;7393090;19;20022;-65
2022/03/06 08:48:09;;;;;;;7.60;5.95;;;;;;;0.64;60.53;101997.69;7394800;19;20365;-65
2022/03/06 08:50:37;;;;;;;6.47;5.32;;;;;;;0.71;60.28;101992.72;7392832;19;20026;-66
2022/03/06 08:53:08;;;;;;;8.68;5.22;;;;;;;0.73;57.86;101993.69;7393820;19;20022;-65
2022/03/06 08:55:37;;;;;;;6.50;5.00;;;;;;;0.77;57.87;101988.72;7393249;19;20101;-65
2022/03/06 08:58:05;;;;;;;8.00;5.15;;;;;;;0.84;57.91;101994.13;7399296;19;20019;-64
2022/03/06 09:00:33;;;;;;;7.35;5.70;;;;;;;0.90;57.03;101991.78;7401874;19;20018;-65
2022/03/06 09:03:01;;;;;;;5.95;4.88;;;;;;;0.95;55.67;101990.25;7399145;19;20039;-65
2022/03/06 09:05:29;;;;;;;7.65;5.70;;;;;;;0.96;54.93;101999.72;7399194;19;20026;-65
2022/03/06 09:08:14;;;;;;;9.25;6.03;;;;;;;0.97;54.06;101998.91;7400024;19;20010;-65
2022/03/06 09:10:43;;;;;;;5.90;5.28;;;;;;;1.00;55.85;101999.03;7398891;19;20479;-65
2022/03/06 09:13:12;;;;;;;9.27;6.93;;;;;;;1.04;55.54;101998.31;7399662;19;20098;-65
2022/03/06 09:15:40;;;;;;;9.45;6.95;;;;;;;1.07;55.13;101995.84;7401648;19;20039;-65
2022/03/06 09:18:08;;;;;;;10.80;6.35;;;;;;;1.09;55.59;101998.50;7402006;19;20026;-64
2022/03/06 09:20:36;;;;;;;7.30;6.07;;;;;;;1.10;55.54;102001.16;7401678;19;20014;-65
2022/03/06 09:23:09;;;;;;;9.02;6.78;;;;;;;1.10;55.35;101995.97;7399018;19;20035;-65
2022/03/06 09:25:37;;;;;;;10.15;7.50;;;;;;;1.09;55.50;101996.78;7401801;19;20019;-65
2022/03/06 09:28:06;;;;;;;7.78;6.28;;;;;;;1.09;55.63;101990.75;7400541;19;20026;-65
2022/03/06 09:30:36;;;;;;;9.65;7.55;;;;;;;1.10;55.32;101992.50;7398426;19;20018;-65
2022/03/06 09:33:04;;;;;;;10.63;7.68;;;;;;;1.09;54.60;101991.63;7397910;19;20019;-64
2022/03/06 09:35:32;;;;;;;11.75;7.78;;;;;;;1.10;55.11;101989.91;7398296;19;20421;-65
2022/03/06 09:38:01;;;;;;;9.60;6.82;;;;;;;1.10;55.08;101988.22;7397878;19;20509;-65
2022/03/06 09:40:32;;;;;;;11.60;7.38;;;;;;;1.10;54.34;101989.91;7400753;19;20025;-66
2022/03/06 09:43:00;;;;;;;8.55;7.53;;;;;;;1.12;55.03;101996.91;7399075;19;20018;-65
2022/03/06 09:45:32;;;;;;;11.27;7.53;;;;;;;1.11;54.50;101992.56;7400699;19;20018;-65
2022/03/06 09:48:00;;;;;;;9.20;7.78;;;;;;;1.12;55.26;101988.28;7397723;19;20425;-66
2022/03/06 09:50:29;;;;;;;9.55;7.80;;;;;;;1.14;55.07;101995.25;7400617;19;20015;-65
2022/03/06 09:52:57;;;;;;;9.75;7.85;;;;;;;1.16;54.44;101995.31;7397869;19;20393;-65
2022/03/06 09:55:25;;;;;;;11.10;8.18;;;;;;;1.16;54.48;101997.03;7398227;19;20023;-65
2022/03/06 09:57:59;;;;;;;10.23;7.90;;;;;;;1.16;53.80;101999.59;7400136;19;20022;-65
2022/03/06 10:00:28;;;;;;;10.32;8.13;;;;;;;1.21;54.65;101992.91;7400460;19;20022;-65
2022/03/06 10:02:57;;;;;;;9.80;7.85;;;;;;;1.25;54.37;101997.34;7398216;19;20022;-66
2022/03/06 10:05:34;;;;;;;13.80;9.00;;;;;;;1.25;54.02;101987.00;7400169;19;20027;-66
2022/03/06 10:08:20;;;;;;;11.13;7.43;;;;;;;1.28;52.99;101993.19;7395503;19;20014;-66
2022/03/06 10:10:52;;;;;;;12.65;8.35;;;;;;;1.31;53.91;101995.00;7400367;19;20040;-65
2022/03/06 10:13:26;;;;;;;11.48;7.88;;;;;;;1.33;53.80;101988.19;7397307;19;20022;-66
2022/03/06 10:16:01;;;;;;;;;;;;;;;1.36;53.19;101983.13;7397972;19;20473;-66
2022/03/06 10:18:31;;;;;;;7.97;5.97;;;;;;;1.39;54.15;101988.41;7399672;19;20313;-65
2022/03/06 10:21:13;;;;;;;10.15;6.68;;;;;;;1.45;54.51;101985.16;7399587;19;20014;-66
2022/03/06 10:23:41;;;;;;;7.50;5.90;;;;;;;1.52;54.37;101984.56;7397035;19;20031;-66
2022/03/06 10:26:12;;;;;;;6.82;5.68;;;;;;;1.55;53.94;101978.59;7397179;19;20018;-66
2022/03/06 10:28:58;;;;;;;10.93;6.30;;;;;;;1.65;52.88;101988.44;7397389;19;20041;-66
2022/03/06 10:31:28;;;;;;;7.35;5.60;;;;;;;1.73;54.05;101988.69;7399579;19;20028;-65
2022/03/06 10:34:02;;;;;;;7.60;4.95;;;;;;;1.79;53.19;101991.50;7396607;19;20018;-66
2022/03/06 10:36:35;;;;;;;6.10;4.57;;;;;;;1.84;52.48;101989.09;7399349;19;20366;-65
2022/03/06 10:39:03;;;;;;;5.85;4.28;;;;;;;1.91;53.07;101993.66;7398356;19;20360;-65
2022/03/06 10:41:40;;;;;;;6.22;4.60;;;;;;;1.95;51.98;101983.44;7396488;19;20015;-65
2022/03/06 10:44:13;;;;;;;5.70;4.38;;;;;;;2.03;52.23;101982.81;7398686;19;20016;-65
2022/03/06 10:46:42;;;;;;;5.53;4.35;;;;;;;2.05;51.62;101982.03;7399056;19;20035;-65
2022/03/06 10:49:12;;;;;;;8.85;6.13;;;;;;;2.08;49.88;101989.91;7398643;19;20040;-65
2022/03/06 10:51:46;;;;;;;7.10;5.25;;;;;;;2.02;48.09;101994.00;7398481;19;20086;-66
2022/03/06 10:54:16;;;;;;;7.13;6.35;;;;;;;1.99;49.33;102001.69;7397486;19;20410;-66
2022/03/06 10:56:47;;;;;;;8.13;6.43;;;;;;;1.94;49.41;101993.75;7398347;19;20026;-66
2022/03/06 10:59:21;;;;;;;10.13;7.03;;;;;;;1.93;50.25;101999.75;7396799;19;20014;-66
2022/03/06 11:01:50;;;;;;;11.27;7.15;;;;;;;1.95;50.34;102000.69;7397657;19;20487;-67
2022/03/06 11:04:20;;;;;;;13.38;10.55;;;;;;;1.97;50.44;101996.41;7398255;19;20010;-66
2022/03/06 11:06:52;;;;;;;10.50;8.13;;;;;;;1.99;50.33;101994.78;7397803;19;20016;-66
2022/03/06 11:09:21;;;;;;;8.90;7.90;;;;;;;2.01;50.00;101993.13;7397005;19;20018;-66
2022/03/06 11:11:51;;;;;;;8.25;7.28;;;;;;;1.99;49.12;101997.38;7397676;19;20412;-67
2022/03/06 11:14:22;;;;;;;12.82;10.07;;;;;;;1.98;50.10;101994.72;7397393;19;20033;-66
2022/03/06 11:16:51;;;;;;;10.48;7.93;;;;;;;2.00;50.03;101999.13;7398093;19;20036;-67
2022/03/06 11:19:19;;;;;;;9.13;7.45;;;;;;;2.00;50.31;101993.94;7397422;19;20035;-66
2022/03/06 11:21:50;;;;;;;9.50;7.90;;;;;;;2.02;50.08;101988.81;7397358;19;20026;-66
2022/03/06 11:24:21;;;;;;;9.60;6.90;;;;;;;2.05;50.29;101984.63;7396221;19;20011;-66
2022/03/06 11:27:11;;;;;;;7.63;6.90;;;;;;;2.09;50.02;101993.38;7397019;19;20483;-66